Station Historical Data
Daily Summary for July 3, 2012 Units:  English    Metric   Both
« Previous Day
Next Day »
Daily Weekly Monthly Yearly Custom
  High: Low: Average:
Temperature: 96.3 °F 71.1 °F 83.7 °F
Dew Point: 71.6 °F 54.5 °F 65.5 °F
Humidity: 88% 26% 59%
Wind Speed: 13.0mph 0.0mph 2.6mph
Wind Gust: 15.0mph - -
Wind- - WSW
Pressure: 30.00 in 29.85 in -
Precipitation: 0.00 in    
Historical Graphs
 
 
Tabular Data for July 3, 2012
Time Temperature Dew Point Pressure Wind Wind Speed Wind Gust Humidity Rainfall Rate (Hourly) Conditions
00:00 78.3 °F 69.3 °F 29.97 in NE 2.0 mph 3.0 mph 74% 0.00 in
00:01 78.3 °F 69.3 °F 29.97 in NE 1.0 mph 3.0 mph 74% 0.00 in
00:06 78.0 °F 69.1 °F 29.96 in Calm   1.0 mph 74% 0.00 in
00:11 77.7 °F 69.2 °F 29.97 in Calm     75% 0.00 in
00:17 77.4 °F 69.2 °F 29.96 in Calm     76% 0.00 in
00:22 77.1 °F 69.3 °F 29.96 in Calm     77% 0.00 in
00:27 76.8 °F 69.4 °F 29.96 in Calm     78% 0.00 in
00:32 76.4 °F 69.4 °F 29.96 in Calm     79% 0.00 in
00:37 76.1 °F 68.8 °F 29.96 in Calm     78% 0.00 in
00:42 75.9 °F 68.6 °F 29.96 in Calm     78% 0.00 in
00:47 75.8 °F 68.1 °F 29.96 in Calm     77% 0.00 in
00:52 75.5 °F 68.9 °F 29.96 in Calm     80% 0.00 in
00:57 75.5 °F 69.3 °F 29.97 in NE 1.0 mph 1.0 mph 81% 0.00 in
01:00 75.5 °F 68.9 °F 29.97 in Calm   1.0 mph 80% 0.00 in
01:02 75.5 °F 69.3 °F 29.97 in Calm   1.0 mph 81% 0.00 in
01:07 75.3 °F 69.1 °F 29.97 in Calm     81% 0.00 in
01:12 75.5 °F 68.9 °F 29.96 in SE 1.0 mph 2.0 mph 80% 0.00 in
01:17 75.5 °F 68.5 °F 29.96 in Calm   1.0 mph 79% 0.00 in
01:22 75.1 °F 68.5 °F 29.96 in Calm     80% 0.00 in
01:27 74.7 °F 68.5 °F 29.96 in Calm     81% 0.00 in
01:30 74.5 °F 68.7 °F 29.96 in Calm     82% 0.00 in
01:32 74.5 °F 68.7 °F 29.96 in Calm   1.0 mph 82% 0.00 in
01:37 74.4 °F 68.9 °F 29.96 in Calm     83% 0.00 in
01:42 74.4 °F 69.3 °F 29.96 in Calm     84% 0.00 in
01:47 74.1 °F 69.0 °F 29.96 in Calm     84% 0.00 in
01:52 73.9 °F 68.8 °F 29.96 in Calm     84% 0.00 in
01:57 73.7 °F 68.6 °F 29.96 in Calm     84% 0.00 in
02:00 74.3 °F 69.2 °F 29.96 in SE 1.0 mph 1.0 mph 84% 0.00 in
02:02 74.5 °F 69.3 °F 29.96 in SE 1.0 mph 1.0 mph 84% 0.00 in
02:07 74.9 °F 69.0 °F 29.96 in Calm     82% 0.00 in
02:12 74.7 °F 68.8 °F 29.96 in Calm     82% 0.00 in
02:17 74.4 °F 68.6 °F 29.96 in Calm     82% 0.00 in
02:22 74.1 °F 68.6 °F 29.96 in Calm     83% 0.00 in
02:27 73.7 °F 68.2 °F 29.96 in Calm     83% 0.00 in
02:30 73.5 °F 68.4 °F 29.96 in Calm     84% 0.00 in
02:32 73.4 °F 68.3 °F 29.96 in Calm     84% 0.00 in
02:37 73.2 °F 68.4 °F 29.95 in Calm     85% 0.00 in
02:42 73.0 °F 68.2 °F 29.95 in Calm     85% 0.00 in
02:47 72.7 °F 67.9 °F 29.95 in Calm     85% 0.00 in
02:52 72.5 °F 68.1 °F 29.95 in Calm     86% 0.00 in
02:58 72.3 °F 67.5 °F 29.95 in Calm     85% 0.00 in
03:00 72.4 °F 67.6 °F 29.95 in Calm     85% 0.00 in
03:03 72.5 °F 67.4 °F 29.95 in Calm     84% 0.00 in
03:08 72.8 °F 68.0 °F 29.94 in Calm     85% 0.00 in
03:13 73.1 °F 68.7 °F 29.95 in Calm     86% 0.00 in
03:18 73.5 °F 68.4 °F 29.95 in Calm     84% 0.00 in
03:23 73.7 °F 68.2 °F 29.94 in Calm     83% 0.00 in
03:28 74.0 °F 68.5 °F 29.95 in Calm     83% 0.00 in
03:30 74.0 °F 67.4 °F 29.94 in Calm     80% 0.00 in
03:33 74.1 °F 67.5 °F 29.95 in Calm     80% 0.00 in
03:38 74.5 °F 67.2 °F 29.95 in Calm     78% 0.00 in
03:43 75.0 °F 66.9 °F 29.95 in Calm     76% 0.00 in
03:48 75.2 °F 67.1 °F 29.95 in Calm     76% 0.00 in
03:53 75.1 °F 67.0 °F 29.95 in Calm     76% 0.00 in
03:58 75.0 °F 66.9 °F 29.95 in Calm     76% 0.00 in
04:00 75.0 °F 66.9 °F 29.95 in Calm   1.0 mph 76% 0.00 in
04:03 75.1 °F 67.4 °F 29.95 in Calm   1.0 mph 77% 0.00 in
04:08 75.3 °F 67.6 °F 29.94 in Calm   1.0 mph 77% 0.00 in
04:13 75.4 °F 67.3 °F 29.94 in Calm     76% 0.00 in
04:18 75.3 °F 67.6 °F 29.94 in Calm     77% 0.00 in
04:23 75.2 °F 67.9 °F 29.95 in Calm     78% 0.00 in
04:28 75.2 °F 67.9 °F 29.94 in Calm     78% 0.00 in
04:30 75.1 °F 67.8 °F 29.94 in SW 1.0 mph 1.0 mph 78% 0.00 in
04:33 74.9 °F 67.2 °F 29.94 in Calm   1.0 mph 77% 0.00 in
04:38 74.5 °F 66.8 °F 29.94 in Calm     77% 0.00 in
04:43 74.2 °F 66.5 °F 29.94 in Calm     77% 0.00 in
04:48 73.9 °F 67.0 °F 29.94 in Calm     79% 0.00 in
04:53 73.3 °F 66.4 °F 29.94 in Calm     79% 0.00 in
04:58 73.1 °F 66.9 °F 29.94 in Calm     81% 0.00 in
05:00 73.1 °F 66.9 °F 29.94 in Calm     81% 0.00 in
05:03 73.0 °F 67.5 °F 29.94 in Calm     83% 0.00 in
05:08 72.8 °F 67.7 °F 29.94 in Calm     84% 0.00 in
05:13 72.4 °F 67.3 °F 29.94 in Calm     84% 0.00 in
05:18 72.4 °F 67.6 °F 29.94 in Calm     85% 0.00 in
05:23 72.8 °F 67.3 °F 29.94 in SW 1.0 mph 1.0 mph 83% 0.00 in
05:28 73.2 °F 67.7 °F 29.94 in SW 1.0 mph 1.0 mph 83% 0.00 in
05:30 73.2 °F 67.7 °F 29.94 in SW 1.0 mph 1.0 mph 83% 0.00 in
05:33 73.2 °F 67.7 °F 29.95 in Calm   1.0 mph 83% 0.00 in
05:38 73.1 °F 67.6 °F 29.95 in SW 1.0 mph 1.0 mph 83% 0.00 in
05:43 72.9 °F 67.8 °F 29.95 in Calm   1.0 mph 84% 0.00 in
05:48 72.6 °F 67.5 °F 29.95 in Calm     84% 0.00 in
05:53 72.2 °F 67.4 °F 29.95 in Calm   1.0 mph 85% 0.00 in
05:58 71.9 °F 67.2 °F 29.95 in Calm   1.0 mph 85% 0.00 in
06:00 71.8 °F 67.1 °F 29.95 in Calm   1.0 mph 85% 0.00 in
06:03 71.8 °F 67.1 °F 29.95 in Calm     85% 0.00 in
06:08 71.7 °F 66.9 °F 29.95 in Calm     85% 0.00 in
06:13 71.6 °F 67.2 °F 29.95 in Calm   1.0 mph 86% 0.00 in
06:18 71.8 °F 67.7 °F 29.95 in Calm     87% 0.00 in
06:23 71.6 °F 67.2 °F 29.96 in Calm     86% 0.00 in
06:28 71.3 °F 67.2 °F 29.96 in Calm     87% 0.00 in
06:30 71.3 °F 67.6 °F 29.96 in Calm     88% 0.00 in
06:33 71.3 °F 67.2 °F 29.96 in Calm     87% 0.00 in
06:38 71.3 °F 67.2 °F 29.96 in Calm     87% 0.00 in
06:44 71.4 °F 67.3 °F 29.96 in Calm     87% 0.00 in
06:49 71.6 °F 67.5 °F 29.96 in Calm     87% 0.00 in
06:54 71.5 °F 67.4 °F 29.96 in SW 1.0 mph 1.0 mph 87% 0.00 in
06:59 71.3 °F 67.2 °F 29.96 in Calm   1.0 mph 87% 0.00 in
07:00 71.2 °F 67.1 °F 29.96 in Calm     87% 0.00 in
07:04 71.2 °F 67.1 °F 29.96 in Calm     87% 0.00 in
07:09 71.1 °F 67.0 °F 29.97 in Calm     87% 0.00 in
07:14 71.4 °F 67.3 °F 29.97 in Calm     87% 0.00 in
07:19 72.1 °F 67.7 °F 29.97 in Calm     86% 0.00 in
07:24 73.0 °F 67.5 °F 29.97 in Calm     83% 0.00 in
07:29 73.9 °F 67.7 °F 29.97 in Calm     81% 0.00 in
07:30 74.2 °F 68.0 °F 29.98 in Calm     81% 0.00 in
07:34 74.3 °F 67.7 °F 29.98 in Calm     80% 0.00 in
07:39 74.8 °F 67.9 °F 29.98 in Calm   1.0 mph 79% 0.00 in
07:44 75.4 °F 68.1 °F 29.98 in Calm     78% 0.00 in
07:49 76.1 °F 68.8 °F 29.98 in Calm   1.0 mph 78% 0.00 in
07:54 76.6 °F 68.5 °F 29.98 in Calm   1.0 mph 76% 0.00 in
07:59 77.3 °F 68.8 °F 29.98 in Calm   1.0 mph 75% 0.00 in
08:00 77.6 °F 68.7 °F 29.98 in South 1.0 mph 1.0 mph 74% 0.00 in
08:04 78.0 °F 68.7 °F 29.98 in Calm   1.0 mph 73% 0.00 in
08:09 78.8 °F 69.4 °F 29.99 in Calm   1.0 mph 73% 0.00 in
08:14 78.8 °F 68.6 °F 29.99 in WSW 2.0 mph 3.0 mph 71% 0.00 in
08:19 78.1 °F 68.8 °F 29.99 in West 2.0 mph 3.0 mph 73% 0.00 in
08:24 77.6 °F 68.7 °F 29.99 in WSW 2.0 mph 3.0 mph 74% 0.00 in
08:29 77.3 °F 68.8 °F 29.99 in WSW 2.0 mph 2.0 mph 75% 0.00 in
08:30 77.2 °F 68.7 °F 29.99 in WSW 1.0 mph 2.0 mph 75% 0.00 in
08:34 77.1 °F 69.0 °F 29.99 in WSW 2.0 mph 2.0 mph 76% 0.00 in
08:39 76.9 °F 68.8 °F 29.99 in West 2.0 mph 4.0 mph 76% 0.00 in
08:44 76.9 °F 69.5 °F 29.99 in WSW 1.0 mph 3.0 mph 78% 0.00 in
08:49 76.9 °F 69.2 °F 29.99 in WSW 2.0 mph 4.0 mph 77% 0.00 in
08:54 76.8 °F 69.1 °F 29.99 in SW 1.0 mph 2.0 mph 77% 0.00 in
08:59 77.0 °F 69.6 °F 30.00 in SW 1.0 mph 2.0 mph 78% 0.00 in
09:00 77.0 °F 69.2 °F 30.00 in WSW 2.0 mph 2.0 mph 77% 0.00 in
09:04 77.2 °F 69.1 °F 30.00 in SW 2.0 mph 3.0 mph 76% 0.00 in
09:09 77.5 °F 69.3 °F 30.00 in West 1.0 mph 2.0 mph 76% 0.00 in
09:14 77.8 °F 68.9 °F 30.00 in WSW 2.0 mph 4.0 mph 74% 0.00 in
09:19 78.1 °F 67.9 °F 30.00 in WSW 2.0 mph 4.0 mph 71% 0.00 in
09:24 78.5 °F 68.7 °F 30.00 in SW 2.0 mph 3.0 mph 72% 0.00 in
09:29 78.7 °F 67.7 °F 30.00 in WSW 3.0 mph 4.0 mph 69% 0.00 in
09:30 78.8 °F 68.2 °F 30.00 in West 1.0 mph 3.0 mph 70% 0.00 in
09:34 79.0 °F 67.6 °F 30.00 in WSW 3.0 mph 4.0 mph 68% 0.00 in
09:39 79.6 °F 68.1 °F 30.00 in West 2.0 mph 4.0 mph 68% 0.00 in
09:44 80.2 °F 67.4 °F 30.00 in West 2.0 mph 3.0 mph 65% 0.00 in
09:49 80.6 °F 66.8 °F 30.00 in WSW 3.0 mph 5.0 mph 63% 0.00 in
09:54 81.4 °F 67.6 °F 30.00 in West 3.0 mph 5.0 mph 63% 0.00 in
09:59 81.7 °F 67.4 °F 30.00 in WSW 3.0 mph 5.0 mph 62% 0.00 in
10:00 82.0 °F 67.7 °F 30.00 in WSW 3.0 mph 4.0 mph 62% 0.00 in
10:04 82.4 °F 67.6 °F 30.00 in WNW 3.0 mph 4.0 mph 61% 0.00 in
10:09 83.3 °F 68.5 °F 30.00 in WSW 4.0 mph 4.0 mph 61% 0.00 in
10:14 83.9 °F 68.1 °F 30.00 in SW 6.0 mph 6.0 mph 59% 0.00 in
10:19 84.5 °F 66.1 °F 30.00 in SW 8.0 mph 8.0 mph 54% 0.00 in
10:24 85.0 °F 66.0 °F 30.00 in WNW 6.0 mph 10.0 mph 53% 0.00 in
10:29 85.0 °F 66.0 °F 30.00 in SSW 3.0 mph 6.0 mph 53% 0.00 in
10:30 85.1 °F 66.6 °F 30.00 in WSW 4.0 mph 6.0 mph 54% 0.00 in
10:34 85.5 °F 65.9 °F 30.00 in West 4.0 mph 5.0 mph 52% 0.00 in
10:39 85.8 °F 64.4 °F 30.00 in SW 3.0 mph 9.0 mph 49% 0.00 in
10:44 86.2 °F 65.4 °F 30.00 in SSW 4.0 mph 6.0 mph 50% 0.00 in
10:49 86.6 °F 64.6 °F 30.00 in SW 9.0 mph 11.0 mph 48% 0.00 in
10:54 86.7 °F 64.1 °F 30.00 in South 4.0 mph 10.0 mph 47% 0.00 in
10:59 87.0 °F 65.0 °F 30.00 in WSW 2.0 mph 8.0 mph 48% 0.00 in
11:00 87.1 °F 64.4 °F 30.00 in WSW 4.0 mph 8.0 mph 47% 0.00 in
11:05 87.1 °F 64.4 °F 30.00 in WSW 4.0 mph 8.0 mph 47% 0.00 in
11:10 87.3 °F 63.4 °F 30.00 in West 6.0 mph 13.0 mph 45% 0.00 in
11:15 87.5 °F 64.8 °F 30.00 in WSW 9.0 mph 11.0 mph 47% 0.00 in
11:20 87.5 °F 64.2 °F 30.00 in West 4.0 mph 9.0 mph 46% 0.00 in
11:25 87.6 °F 64.3 °F 30.00 in SW 7.0 mph 8.0 mph 46% 0.00 in
11:30 87.8 °F 64.5 °F 30.00 in WNW 2.0 mph 5.0 mph 46% 0.00 in
11:35 88.1 °F 64.7 °F 30.00 in West 7.0 mph 7.0 mph 46% 0.00 in
11:40 88.4 °F 63.1 °F 30.00 in ENE 1.0 mph 8.0 mph 43% 0.00 in
11:45 89.4 °F 64.6 °F 29.99 in West 3.0 mph 8.0 mph 44% 0.00 in
11:50 89.8 °F 63.7 °F 29.99 in West 3.0 mph 9.0 mph 42% 0.00 in
11:55 90.3 °F 64.1 °F 30.00 in WSW 2.0 mph 8.0 mph 42% 0.00 in
12:00 90.4 °F 63.5 °F 29.99 in SW 7.0 mph 8.0 mph 41% 0.00 in
12:05 90.7 °F 63.8 °F 29.99 in SW 9.0 mph 11.0 mph 41% 0.00 in
12:10 90.5 °F 64.3 °F 29.99 in SSE 1.0 mph 6.0 mph 42% 0.00 in
12:15 90.8 °F 63.2 °F 29.99 in SE 2.0 mph 4.0 mph 40% 0.00 in
12:20 91.6 °F 62.4 °F 29.99 in SW 11.0 mph 11.0 mph 38% 0.00 in
12:25 91.4 °F 59.9 °F 29.98 in West 1.0 mph 10.0 mph 35% 0.00 in
12:30 91.8 °F 56.9 °F 29.98 in SW 13.0 mph 13.0 mph 31% 0.00 in
12:35 92.4 °F 57.4 °F 29.98 in SW 6.0 mph 10.0 mph 31% 0.00 in
12:40 92.4 °F 57.4 °F 29.98 in WNW 7.0 mph 9.0 mph 31% 0.00 in
12:45 92.6 °F 57.6 °F 29.98 in West 7.0 mph 9.0 mph 31% 0.00 in
12:50 92.6 °F 57.6 °F 29.98 in South 2.0 mph 9.0 mph 31% 0.00 in
12:55 93.1 °F 57.1 °F 29.97 in SW 7.0 mph 11.0 mph 30% 0.00 in
13:00 93.6 °F 57.5 °F 29.97 in SSW 4.0 mph 7.0 mph 30% 0.00 in
13:05 94.3 °F 57.2 °F 29.97 in SW 9.0 mph 9.0 mph 29% 0.00 in
13:10 94.8 °F 55.6 °F 29.97 in SSW 7.0 mph 9.0 mph 27% 0.00 in
13:15 94.9 °F 55.7 °F 29.97 in SW 5.0 mph 8.0 mph 27% 0.00 in
13:20 94.8 °F 54.6 °F 29.97 in WSW 6.0 mph 11.0 mph 26% 0.00 in
13:25 94.7 °F 54.5 °F 29.97 in South 8.0 mph 11.0 mph 26% 0.00 in
13:30 94.8 °F 55.6 °F 29.97 in SSE 5.0 mph 14.0 mph 27% 0.00 in
13:35 94.6 °F 55.5 °F 29.96 in South 6.0 mph 12.0 mph 27% 0.00 in
13:40 94.8 °F 56.7 °F 29.96 in WSW 5.0 mph 8.0 mph 28% 0.00 in
13:45 94.6 °F 56.5 °F 29.96 in West 4.0 mph 12.0 mph 28% 0.00 in
13:50 94.9 °F 57.7 °F 29.96 in SSW 4.0 mph 11.0 mph 29% 0.00 in
13:55 95.5 °F 57.2 °F 29.95 in WNW 6.0 mph 14.0 mph 28% 0.00 in
14:00 94.9 °F 57.7 °F 29.95 in WNW 6.0 mph 12.0 mph 29% 0.00 in
14:06 94.7 °F 56.6 °F 29.95 in WNW 7.0 mph 11.0 mph 28% 0.00 in
14:11 95.0 °F 56.8 °F 29.95 in SSW 5.0 mph 9.0 mph 28% 0.00 in
14:16 94.9 °F 57.7 °F 29.95 in West 6.0 mph 12.0 mph 29% 0.00 in
14:21 95.3 °F 59.0 °F 29.94 in SSW 5.0 mph 6.0 mph 30% 0.00 in
14:26 95.7 °F 58.4 °F 29.95 in SSW 10.0 mph 13.0 mph 29% 0.00 in
14:31 95.8 °F 59.4 °F 29.94 in West 4.0 mph 6.0 mph 30% 0.00 in
14:36 95.7 °F 58.4 °F 29.94 in WNW 11.0 mph 13.0 mph 29% 0.00 in
14:41 95.3 °F 58.0 °F 29.93 in NW 2.0 mph 6.0 mph 29% 0.00 in
14:47 95.4 °F 60.9 °F 29.93 in WSW 6.0 mph 9.0 mph 32% 0.00 in
14:52 95.5 °F 59.2 °F 29.93 in West 11.0 mph 14.0 mph 30% 0.00 in
14:57 95.0 °F 58.7 °F 29.93 in WSW 6.0 mph 9.0 mph 30% 0.00 in
15:00 95.4 °F 60.0 °F 29.92 in WSW 11.0 mph 11.0 mph 31% 0.00 in
15:02 95.4 °F 60.0 °F 29.92 in West 9.0 mph 11.0 mph 31% 0.00 in
15:07 95.5 °F 60.1 °F 29.93 in WSW 8.0 mph 12.0 mph 31% 0.00 in
15:12 95.0 °F 60.5 °F 29.92 in WNW 7.0 mph 11.0 mph 32% 0.00 in
15:17 95.1 °F 58.8 °F 29.92 in WNW 8.0 mph 15.0 mph 30% 0.00 in
15:22 95.4 °F 60.9 °F 29.92 in WNW 9.0 mph 12.0 mph 32% 0.00 in
15:27 95.4 °F 60.0 °F 29.91 in WNW 8.0 mph 14.0 mph 31% 0.00 in
15:30 95.3 °F 60.8 °F 29.91 in West 6.0 mph 13.0 mph 32% 0.00 in
15:32 95.3 °F 59.9 °F 29.91 in West 7.0 mph 13.0 mph 31% 0.00 in
15:37 95.7 °F 61.2 °F 29.91 in WSW 7.0 mph 10.0 mph 32% 0.00 in
15:42 95.4 °F 60.0 °F 29.90 in WSW 10.0 mph 12.0 mph 31% 0.00 in
15:47 95.5 °F 61.0 °F 29.90 in WSW 11.0 mph 12.0 mph 32% 0.00 in
15:52 95.9 °F 61.3 °F 29.90 in WNW 4.0 mph 9.0 mph 32% 0.00 in
15:57 95.7 °F 61.2 °F 29.90 in WSW 8.0 mph 15.0 mph 32% 0.00 in
16:00 95.6 °F 61.9 °F 29.90 in West 8.0 mph 13.0 mph 33% 0.00 in
16:02 95.6 °F 61.1 °F 29.90 in WSW 7.0 mph 12.0 mph 32% 0.00 in
16:07 95.8 °F 61.2 °F 29.89 in SSW 6.0 mph 9.0 mph 32% 0.00 in
16:12 96.0 °F 61.4 °F 29.89 in North 6.0 mph 11.0 mph 32% 0.00 in
16:17 95.9 °F 59.5 °F 29.89 in WSW 8.0 mph 12.0 mph 30% 0.00 in
16:22 95.6 °F 59.2 °F 29.89 in SW 5.0 mph 10.0 mph 30% 0.00 in
16:27 96.0 °F 59.6 °F 29.89 in WSW 5.0 mph 14.0 mph 30% 0.00 in
16:30 95.9 °F 59.5 °F 29.89 in WNW 6.0 mph 14.0 mph 30% 0.00 in
16:32 95.7 °F 59.3 °F 29.89 in WNW 4.0 mph 14.0 mph 30% 0.00 in
16:37 95.8 °F 60.3 °F 29.88 in NW 7.0 mph 13.0 mph 31% 0.00 in
16:42 95.8 °F 60.3 °F 29.88 in South 3.0 mph 11.0 mph 31% 0.00 in
16:47 96.1 °F 61.5 °F 29.88 in WNW 6.0 mph 7.0 mph 32% 0.00 in
16:52 96.2 °F 61.6 °F 29.87 in NW 7.0 mph 7.0 mph 32% 0.00 in
16:57 96.3 °F 62.5 °F 29.87 in WSW 6.0 mph 9.0 mph 33% 0.00 in
17:00 96.2 °F 60.7 °F 29.87 in WSW 11.0 mph 13.0 mph 31% 0.00 in
17:02 96.0 °F 60.5 °F 29.87 in West 9.0 mph 13.0 mph 31% 0.00 in
17:07 95.8 °F 61.2 °F 29.87 in WSW 6.0 mph 11.0 mph 32% 0.00 in
17:12 95.7 °F 59.3 °F 29.87 in WNW 5.0 mph 11.0 mph 30% 0.00 in
17:17 96.3 °F 62.5 °F 29.87 in West 3.0 mph 8.0 mph 33% 0.00 in
17:22 96.0 °F 61.4 °F 29.87 in SSW 6.0 mph 9.0 mph 32% 0.00 in
17:27 96.0 °F 59.6 °F 29.86 in Calm   5.0 mph 30% 0.00 in
17:32 96.3 °F 58.9 °F 29.86 in West 6.0 mph 8.0 mph 29% 0.00 in
17:37 95.7 °F 62.0 °F 29.86 in WNW 4.0 mph 9.0 mph 33% 0.00 in
17:42 95.5 °F 62.7 °F 29.86 in WNW 4.0 mph 9.0 mph 34% 0.00 in
17:47 95.5 °F 61.8 °F 29.86 in SW 4.0 mph 6.0 mph 33% 0.00 in
17:52 95.5 °F 61.8 °F 29.86 in WNW 8.0 mph 12.0 mph 33% 0.00 in
17:57 95.2 °F 61.6 °F 29.86 in SW 9.0 mph 12.0 mph 33% 0.00 in
18:02 95.2 °F 61.6 °F 29.85 in SW 6.0 mph 11.0 mph 33% 0.00 in
18:07 95.5 °F 61.0 °F 29.85 in SW 6.0 mph 9.0 mph 32% 0.00 in
18:12 95.5 °F 61.8 °F 29.85 in West 4.0 mph 10.0 mph 33% 0.00 in
18:17 95.1 °F 62.3 °F 29.85 in West 4.0 mph 8.0 mph 34% 0.00 in
18:22 95.5 °F 61.8 °F 29.86 in SW 6.0 mph 8.0 mph 33% 0.00 in
18:27 95.5 °F 62.7 °F 29.86 in WSW 5.0 mph 6.0 mph 34% 0.00 in
18:30 95.6 °F 61.9 °F 29.86 in SW 7.0 mph 11.0 mph 33% 0.00 in
18:33 95.4 °F 61.8 °F 29.86 in SW 4.0 mph 11.0 mph 33% 0.00 in
18:38 95.4 °F 62.6 °F 29.86 in West 4.0 mph 8.0 mph 34% 0.00 in
18:43 95.1 °F 62.3 °F 29.85 in WNW 4.0 mph 8.0 mph 34% 0.00 in
18:48 95.2 °F 63.3 °F 29.85 in West 2.0 mph 7.0 mph 35% 0.00 in
18:53 95.2 °F 63.3 °F 29.85 in West 3.0 mph 6.0 mph 35% 0.00 in
18:58 95.0 °F 63.1 °F 29.85 in WSW 6.0 mph 6.0 mph 35% 0.00 in
19:00 94.8 °F 63.7 °F 29.85 in WNW 3.0 mph 7.0 mph 36% 0.00 in
19:03 94.8 °F 62.9 °F 29.85 in WSW 4.0 mph 7.0 mph 35% 0.00 in
19:08 94.5 °F 63.4 °F 29.86 in WNW 3.0 mph 9.0 mph 36% 0.00 in
19:13 94.5 °F 64.2 °F 29.85 in NW 3.0 mph 6.0 mph 37% 0.00 in
19:18 94.4 °F 63.4 °F 29.85 in WNW 5.0 mph 8.0 mph 36% 0.00 in
19:23 94.2 °F 64.0 °F 29.85 in West 4.0 mph 5.0 mph 37% 0.00 in
19:28 93.8 °F 65.1 °F 29.85 in WNW 5.0 mph 6.0 mph 39% 0.00 in
19:30 93.4 °F 64.8 °F 29.86 in West 3.0 mph 7.0 mph 39% 0.00 in
19:33 93.2 °F 65.3 °F 29.85 in WSW 2.0 mph 7.0 mph 40% 0.00 in
19:38 92.9 °F 64.3 °F 29.85 in WSW 4.0 mph 4.0 mph 39% 0.00 in
19:43 92.8 °F 64.9 °F 29.85 in West 3.0 mph 6.0 mph 40% 0.00 in
19:48 92.6 °F 65.5 °F 29.85 in WNW 2.0 mph 7.0 mph 41% 0.00 in
19:53 92.2 °F 65.8 °F 29.85 in WNW 1.0 mph 5.0 mph 42% 0.00 in
19:58 92.1 °F 66.4 °F 29.85 in West 1.0 mph 2.0 mph 43% 0.00 in
20:00 92.0 °F 66.3 °F 29.86 in NW 3.0 mph 5.0 mph 43% 0.00 in
20:03 91.9 °F 66.2 °F 29.86 in WNW 3.0 mph 5.0 mph 43% 0.00 in
20:08 91.7 °F 66.1 °F 29.86 in West 3.0 mph 5.0 mph 43% 0.00 in
20:13 91.6 °F 66.0 °F 29.86 in West 1.0 mph 3.0 mph 43% 0.00 in
20:18 91.6 °F 66.6 °F 29.86 in WNW 4.0 mph 5.0 mph 44% 0.00 in
20:23 91.5 °F 66.5 °F 29.86 in West 3.0 mph 4.0 mph 44% 0.00 in
20:28 91.2 °F 66.9 °F 29.87 in West 1.0 mph 4.0 mph 45% 0.00 in
20:30 91.1 °F 66.8 °F 29.87 in NW 2.0 mph 2.0 mph 45% 0.00 in
20:33 91.0 °F 66.7 °F 29.87 in NW 2.0 mph 2.0 mph 45% 0.00 in
20:38 90.8 °F 66.6 °F 29.87 in NNW 2.0 mph 3.0 mph 45% 0.00 in
20:43 89.9 °F 67.6 °F 29.87 in WNW 5.0 mph 12.0 mph 48% 0.00 in
20:48 88.5 °F 66.3 °F 29.88 in North 3.0 mph 9.0 mph 48% 0.00 in
20:53 87.7 °F 67.3 °F 29.88 in NW 4.0 mph 10.0 mph 51% 0.00 in
20:58 86.6 °F 68.5 °F 29.88 in NNW 1.0 mph 3.0 mph 55% 0.00 in
21:00 86.0 °F 68.5 °F 29.88 in NNW 2.0 mph 2.0 mph 56% 0.00 in
21:03 85.7 °F 67.7 °F 29.88 in North 3.0 mph 3.0 mph 55% 0.00 in
21:08 84.8 °F 70.3 °F 29.88 in Calm   2.0 mph 62% 0.00 in
21:13 83.6 °F 70.1 °F 29.88 in Calm   1.0 mph 64% 0.00 in
21:18 82.6 °F 70.1 °F 29.88 in WNW 1.0 mph 2.0 mph 66% 0.00 in
21:23 81.9 °F 71.6 °F 29.88 in Calm   2.0 mph 71% 0.00 in
21:28 81.0 °F 69.9 °F 29.88 in Calm   1.0 mph 69% 0.00 in
21:30 80.9 °F 70.2 °F 29.88 in Calm     70% 0.00 in
21:34 81.0 °F 71.1 °F 29.88 in Calm     72% 0.00 in
21:39 80.7 °F 70.4 °F 29.89 in Calm     71% 0.00 in
21:44 80.4 °F 70.6 °F 29.89 in Calm     72% 0.00 in
21:49 80.1 °F 70.3 °F 29.89 in Calm     72% 0.00 in
21:54 80.1 °F 68.2 °F 29.89 in Calm     67% 0.00 in
22:05 80.5 °F 69.4 °F 29.90 in Calm   1.0 mph 69% 0.00 in
22:10 80.6 °F 70.3 °F 29.90 in Calm     71% 0.00 in
22:15 80.3 °F 70.5 °F 29.90 in Calm     72% 0.00 in
22:20 80.5 °F 70.7 °F 29.90 in Calm   1.0 mph 72% 0.00 in
22:25 80.8 °F 69.7 °F 29.91 in Calm     69% 0.00 in
22:30 81.0 °F 69.4 °F 29.91 in Calm   1.0 mph 68% 0.00 in
22:35 81.0 °F 69.0 °F 29.91 in West 1.0 mph 1.0 mph 67% 0.00 in
22:40 81.1 °F 69.1 °F 29.91 in Calm     67% 0.00 in
22:45 81.2 °F 68.3 °F 29.91 in Calm     65% 0.00 in
22:50 81.4 °F 69.0 °F 29.91 in Calm   1.0 mph 66% 0.00 in
22:55 81.7 °F 68.8 °F 29.92 in Calm   1.0 mph 65% 0.00 in
23:00 81.8 °F 68.9 °F 29.92 in Calm   1.0 mph 65% 0.00 in
23:05 81.9 °F 68.5 °F 29.92 in WNW 1.0 mph 2.0 mph 64% 0.00 in
23:10 82.2 °F 68.4 °F 29.92 in WNW 1.0 mph 2.0 mph 63% 0.00 in
23:15 82.2 °F 68.8 °F 29.92 in Calm   1.0 mph 64% 0.00 in
23:20 82.1 °F 68.7 °F 29.92 in NNW 1.0 mph 1.0 mph 64% 0.00 in
23:25 81.7 °F 68.8 °F 29.92 in North 1.0 mph 1.0 mph 65% 0.00 in
23:30 81.3 °F 68.4 °F 29.92 in Calm   1.0 mph 65% 0.00 in
23:35 80.7 °F 68.3 °F 29.92 in Calm     66% 0.00 in
23:40 80.2 °F 68.3 °F 29.92 in Calm     67% 0.00 in
23:45 79.8 °F 68.3 °F 29.92 in Calm     68% 0.00 in
23:50 79.4 °F 68.3 °F 29.91 in Calm     69% 0.00 in
23:55 79.0 °F 68.4 °F 29.91 in North 1.0 mph 1.0 mph 70% 0.00 in
Compliments of Weather Underground